Time;durP1;ratioP1;P1;durP2;ratioP2;P2;SDS_P1;SDS_P2;PMS_P1;PMS_P2;Temp;Humidity;BMP_temperature;BMP_pressure;BME280_temperature;BME280_humidity;BME280_pressure;Samples;Min_cycle;Max_cycle;Signal;HPM_P1;HPM_P2
2023/05/08 00:00:21;;;;;;;16.80;12.70;;;;;;;15.22;100.00;101691.69;5039960;28;20037;-69
2023/05/08 00:02:46;;;;;;;13.20;11.10;;;;;;;15.18;100.00;101678.97;5042316;28;20608;-70
2023/05/08 00:05:12;;;;;;;12.13;10.60;;;;;;;15.17;100.00;101677.34;5043016;28;20081;-69
2023/05/08 00:07:38;;;;;;;14.45;10.90;;;;;;;15.17;100.00;101676.53;5044234;28;20079;-69
2023/05/08 00:10:04;;;;;;;17.05;10.93;;;;;;;15.16;100.00;101678.34;5023245;28;20071;-69
2023/05/08 00:12:30;;;;;;;12.57;10.02;;;;;;;15.16;100.00;101683.56;5042270;28;20056;-68
2023/05/08 00:14:56;;;;;;;13.55;10.38;;;;;;;15.13;100.00;101678.66;5040267;28;20053;-69
2023/05/08 00:17:21;;;;;;;14.25;11.07;;;;;;;15.12;100.00;101686.66;5042101;28;20029;-68
2023/05/08 00:19:47;;;;;;;13.15;10.55;;;;;;;15.09;100.00;101689.63;5040033;28;20123;-69
2023/05/08 00:22:12;;;;;;;14.43;10.85;;;;;;;15.07;100.00;101697.59;5022198;28;20501;-69
2023/05/08 00:24:38;;;;;;;14.02;10.30;;;;;;;15.03;100.00;101688.47;5039757;28;20069;-68
2023/05/08 00:27:03;;;;;;;14.82;11.20;;;;;;;15.01;100.00;101687.78;5045849;28;20075;-68
2023/05/08 00:29:29;;;;;;;14.25;10.18;;;;;;;14.99;100.00;101687.13;5037114;28;20253;-69
2023/05/08 00:31:55;;;;;;;15.85;11.13;;;;;;;14.95;100.00;101678.00;5002822;28;20034;-69
2023/05/08 00:34:20;;;;;;;12.40;10.57;;;;;;;14.91;100.00;101676.69;5019325;28;20048;-69
2023/05/08 00:36:46;;;;;;;12.15;10.60;;;;;;;14.85;100.00;101680.78;5021994;28;20029;-69
2023/05/08 00:39:11;;;;;;;11.38;9.10;;;;;;;14.84;100.00;101686.16;5015530;28;20550;-68
2023/05/08 00:41:37;;;;;;;11.55;9.88;;;;;;;14.82;100.00;101683.72;5022721;28;20029;-69
2023/05/08 00:44:03;;;;;;;10.77;9.13;;;;;;;14.82;100.00;101683.72;5040289;28;20072;-69
2023/05/08 00:46:30;;;;;;;10.77;8.85;;;;;;;14.82;100.00;101686.31;5043484;28;20025;-68
2023/05/08 00:48:56;;;;;;;12.20;9.55;;;;;;;14.82;100.00;101682.91;5009851;28;20064;-69
2023/05/08 00:51:22;;;;;;;15.40;11.68;;;;;;;14.79;100.00;101681.44;5039130;28;20040;-68
2023/05/08 00:53:48;;;;;;;10.13;8.57;;;;;;;14.74;100.00;101681.91;5024930;28;20040;-69
2023/05/08 00:56:16;;;;;;;11.85;9.57;;;;;;;14.71;100.00;101690.09;5037642;28;20044;-69
2023/05/08 00:58:43;;;;;;;11.00;9.30;;;;;;;14.69;100.00;101688.59;5043320;28;20036;-69
2023/05/08 01:01:10;;;;;;;12.48;9.60;;;;;;;14.69;100.00;101688.59;5046414;28;20024;-69
2023/05/08 01:03:36;;;;;;;11.95;9.00;;;;;;;14.68;100.00;101692.19;5026182;28;20090;-69
2023/05/08 01:06:02;;;;;;;12.82;9.20;;;;;;;14.69;100.00;101696.41;5041884;28;20052;-69
2023/05/08 01:08:29;;;;;;;12.95;10.30;;;;;;;14.69;100.00;101693.81;5039873;28;20111;-69
2023/05/08 01:11:05;;;;;;;12.68;9.90;;;;;;;14.68;100.00;101693.00;5042635;28;20511;-69
2023/05/08 01:13:50;;;;;;;13.98;10.27;;;;;;;14.65;100.00;101690.69;5040886;28;20091;-69
2023/05/08 01:16:27;;;;;;;13.27;10.73;;;;;;;14.59;100.00;101686.13;5025629;28;20037;-69
2023/05/08 01:19:23;;;;;;;16.92;10.80;;;;;;;14.54;100.00;101688.38;5009495;28;20383;-68
2023/05/08 01:21:55;;;;;;;18.90;10.40;;;;;;;14.52;100.00;101698.16;5039782;28;20043;-68
2023/05/08 01:24:53;;;;;;;15.05;9.48;;;;;;;14.49;100.00;101701.91;5020408;28;21326;-68
2023/05/08 01:27:39;;;;;;;14.90;9.95;;;;;;;14.47;100.00;101693.44;5026425;28;20016;-68
2023/05/08 01:30:11;;;;;;;15.10;10.32;;;;;;;14.47;100.00;101698.66;5039059;28;20049;-68
2023/05/08 01:32:42;;;;;;;13.10;9.57;;;;;;;14.44;100.00;101696.34;5039234;28;20178;-69
2023/05/08 01:35:28;;;;;;;12.25;9.57;;;;;;;14.37;100.00;101704.00;5040882;28;20056;-69
2023/05/08 01:38:05;;;;;;;10.95;9.30;;;;;;;14.32;100.00;101695.03;5040794;28;20040;-69
2023/05/08 01:40:43;;;;;;;9.80;8.50;;;;;;;14.29;100.00;101705.78;5041347;28;20073;-69
2023/05/08 01:43:43;;;;;;;10.45;9.00;;;;;;;14.24;100.00;101705.41;5023378;28;20060;-68
2023/05/08 01:46:15;;;;;;;16.50;9.00;;;;;;;14.20;100.00;101702.31;4999543;28;20128;-68
2023/05/08 01:49:11;;;;;;;13.35;9.38;;;;;;;14.18;100.00;101707.72;5039974;28;20045;-69
2023/05/08 01:51:56;;;;;;;10.95;9.07;;;;;;;14.17;100.00;101711.28;5012073;28;20053;-67
2023/05/08 01:54:25;;;;;;;12.57;9.15;;;;;;;14.17;100.00;101711.28;5027822;28;20546;-69
2023/05/08 01:56:54;;;;;;;13.10;8.90;;;;;;;14.18;100.00;101714.69;5038286;28;20037;-69
2023/05/08 01:59:23;;;;;;;13.15;10.85;;;;;;;14.18;100.00;101714.69;5033133;28;20055;-68
2023/05/08 02:01:56;;;;;;;11.80;9.88;;;;;;;14.19;100.00;101713.72;5010045;28;20123;-69
2023/05/08 02:04:22;;;;;;;13.27;9.70;;;;;;;14.19;100.00;101716.34;5036371;28;20044;-68
2023/05/08 02:06:50;;;;;;;11.20;8.90;;;;;;;14.18;100.00;101720.75;5031829;28;20475;-69
2023/05/08 02:09:15;;;;;;;11.68;9.27;;;;;;;14.18;100.00;101723.34;5025691;28;20044;-69
2023/05/08 02:11:44;;;;;;;14.88;9.38;;;;;;;14.16;100.00;101719.25;5039217;28;20040;-69
2023/05/08 02:14:12;;;;;;;12.40;9.80;;;;;;;14.15;100.00;101726.25;5019589;28;20037;-68
2023/05/08 02:16:40;;;;;;;15.35;10.52;;;;;;;14.15;100.00;101733.28;5040255;28;20763;-69
2023/05/08 02:19:08;;;;;;;11.55;10.02;;;;;;;14.15;100.00;101731.47;5042277;28;20519;-68
2023/05/08 02:21:36;;;;;;;13.20;10.10;;;;;;;14.15;100.00;101735.88;5010394;28;20127;-69
2023/05/08 02:24:03;;;;;;;12.45;9.60;;;;;;;14.13;100.00;101735.22;5042227;28;20128;-69
2023/05/08 02:26:30;;;;;;;15.05;10.55;;;;;;;14.12;100.00;101734.38;5037028;28;20021;-69
2023/05/08 02:29:01;;;;;;;12.43;9.93;;;;;;;14.08;100.00;101738.28;5040437;28;20051;-69
2023/05/08 02:31:28;;;;;;;13.80;9.73;;;;;;;14.03;100.00;101727.50;5041816;28;20029;-69
2023/05/08 02:33:56;;;;;;;13.95;9.73;;;;;;;13.95;100.00;101736.09;5039306;28;20071;-69
2023/05/08 02:36:28;;;;;;;13.30;9.20;;;;;;;13.90;100.00;101732.31;5039101;28;20388;-69
2023/05/08 02:38:58;;;;;;;12.50;9.15;;;;;;;13.82;100.00;101736.56;5039736;28;20049;-69
2023/05/08 02:41:28;;;;;;;12.82;9.00;;;;;;;13.76;100.00;101729.31;5038588;28;20560;-69
2023/05/08 02:43:54;;;;;;;11.40;8.60;;;;;;;13.72;100.00;101733.22;5038704;28;20033;-69
2023/05/08 02:46:50;;;;;;;12.95;8.32;;;;;;;13.69;100.00;101728.31;5028157;28;20158;-69
2023/05/08 02:49:29;;;;;;;16.00;7.65;;;;;;;13.66;100.00;101727.81;5024486;28;20045;-69
2023/05/08 02:52:07;;;;;;;14.32;9.05;;;;;;;13.62;100.00;101724.69;5023683;28;20490;-69
2023/05/08 02:54:58;;;;;;;13.70;9.32;;;;;;;13.58;100.00;101725.94;5035507;28;20052;-69
2023/05/08 02:57:45;;;;;;;10.30;8.70;;;;;;;13.54;100.00;101716.81;5022398;28;20060;-69
2023/05/08 03:00:19;;;;;;;12.48;8.90;;;;;;;13.52;100.00;101723.97;5041068;28;20045;-69
2023/05/08 03:03:07;;;;;;;16.02;9.55;;;;;;;13.52;100.00;101721.34;5010035;28;20029;-69
2023/05/08 03:05:36;;;;;;;14.32;10.13;;;;;;;13.51;100.00;101723.16;5039149;28;20071;-68
2023/05/08 03:08:09;;;;;;;15.90;10.98;;;;;;;13.51;100.00;101720.56;5036880;28;20032;-69
2023/05/08 03:10:37;;;;;;;13.40;9.75;;;;;;;13.50;100.00;101728.50;5044204;28;20402;-68
2023/05/08 03:13:06;;;;;;;13.73;10.35;;;;;;;13.49;100.00;101722.50;5040183;28;20048;-69
2023/05/08 03:15:41;;;;;;;16.33;10.18;;;;;;;13.50;100.00;101716.28;5023143;28;20033;-69
2023/05/08 03:18:10;;;;;;;12.85;10.48;;;;;;;13.47;100.00;101719.22;5040349;28;20130;-68
2023/05/08 03:20:43;;;;;;;15.52;10.15;;;;;;;13.44;100.00;101722.13;5023587;28;20040;-69
2023/05/08 03:23:15;;;;;;;17.65;10.38;;;;;;;13.42;100.00;101721.47;5037476;28;20055;-68
2023/05/08 03:25:42;;;;;;;14.05;10.25;;;;;;;13.40;100.00;101719.00;5039860;28;20029;-68
2023/05/08 03:28:10;;;;;;;20.98;9.82;;;;;;;13.40;100.00;101719.00;5023520;28;20055;-68
2023/05/08 03:30:37;;;;;;;18.00;11.30;;;;;;;13.39;100.00;101724.34;5018294;28;20033;-69
2023/05/08 03:33:08;;;;;;;15.40;11.60;;;;;;;13.38;100.00;101718.34;5036767;28;20053;-69
2023/05/08 03:35:38;;;;;;;16.00;11.02;;;;;;;13.36;100.00;101716.88;5038325;28;20025;-69
2023/05/08 03:38:05;;;;;;;17.15;11.63;;;;;;;13.33;100.00;101717.16;5023941;28;20044;-69
2023/05/08 03:40:41;;;;;;;15.23;12.35;;;;;;;13.29;100.00;101711.41;5021645;28;20023;-69
2023/05/08 03:43:10;;;;;;;15.73;10.77;;;;;;;13.25;100.00;101718.69;5033350;28;20466;-68
2023/05/08 03:45:37;;;;;;;16.38;11.48;;;;;;;13.22;100.00;101716.41;5037762;28;20037;-69
2023/05/08 03:48:04;;;;;;;15.30;11.00;;;;;;;13.21;100.00;101719.16;5002961;28;20029;-69
2023/05/08 03:50:34;;;;;;;14.70;11.05;;;;;;;13.19;100.00;101716.69;5037826;28;20029;-68
2023/05/08 03:53:00;;;;;;;18.77;10.88;;;;;;;13.16;100.00;101719.59;5034196;28;20077;-69
2023/05/08 03:55:26;;;;;;;16.02;9.85;;;;;;;13.15;100.00;101717.97;5024671;28;20071;-69
2023/05/08 03:58:37;;;;;;;13.95;10.45;;;;;;;13.14;100.00;101723.34;5021984;28;20973;-69
2023/05/08 04:01:30;;;;;;;14.23;10.27;;;;;;;13.13;100.00;101719.91;5004011;28;20049;-69
2023/05/08 04:04:08;;;;;;;18.42;10.82;;;;;;;13.06;100.00;101726.69;5039213;28;20120;-69
2023/05/08 04:06:48;;;;;;;13.27;9.90;;;;;;;13.02;100.00;101726.16;5020454;28;20041;-69
2023/05/08 04:09:26;;;;;;;12.77;9.25;;;;;;;13.01;100.00;101734.94;5041576;28;20053;-69
2023/05/08 04:12:04;;;;;;;16.13;9.80;;;;;;;13.01;100.00;101737.53;5010697;28;20032;-69
2023/05/08 04:14:55;;;;;;;11.95;8.80;;;;;;;12.97;100.00;101738.81;5025219;28;20048;-69
2023/05/08 04:17:32;;;;;;;16.10;9.45;;;;;;;12.96;100.00;101733.75;5027415;28;20040;-69
2023/05/08 04:20:02;;;;;;;12.85;9.25;;;;;;;12.94;100.00;101728.72;5043271;28;20037;-69
2023/05/08 04:22:32;;;;;;;16.15;10.55;;;;;;;12.93;100.00;101732.25;5045934;28;20029;-69
2023/05/08 04:25:01;;;;;;;16.13;10.60;;;;;;;12.89;100.00;101727.50;5025549;28;20077;-69
2023/05/08 04:27:28;;;;;;;15.70;10.43;;;;;;;12.86;100.00;101723.41;5047611;28;20383;-69
2023/05/08 04:29:56;;;;;;;18.92;10.00;;;;;;;12.85;100.00;101733.00;5046859;28;20499;-69
2023/05/08 04:32:23;;;;;;;14.60;11.02;;;;;;;12.85;100.00;101724.38;5046710;28;20090;-69
2023/05/08 04:34:49;;;;;;;15.30;10.30;;;;;;;12.85;100.00;101740.00;5028068;28;20052;-69
2023/05/08 04:37:26;;;;;;;13.35;10.23;;;;;;;12.85;100.00;101735.63;5029673;28;20037;-69
2023/05/08 04:39:52;;;;;;;16.40;9.55;;;;;;;12.89;100.00;101736.13;5028665;28;20102;-69
2023/05/08 04:42:19;;;;;;;14.63;10.18;;;;;;;12.92;100.00;101740.22;5047685;28;20083;-68
2023/05/08 04:44:47;;;;;;;13.70;10.57;;;;;;;12.95;100.00;101742.53;5014765;28;20041;-69
2023/05/08 04:47:13;;;;;;;14.38;10.10;;;;;;;12.95;100.00;101740.75;5027876;28;20037;-69
2023/05/08 04:49:39;;;;;;;16.73;10.43;;;;;;;12.95;100.00;101739.94;5012489;28;20044;-69
2023/05/08 04:52:05;;;;;;;19.75;10.90;;;;;;;12.95;100.00;101738.13;5031878;28;20031;-69
2023/05/08 04:54:31;;;;;;;19.20;11.77;;;;;;;12.97;100.00;101741.41;5028996;28;20048;-69
2023/05/08 04:56:57;;;;;;;21.15;12.07;;;;;;;12.98;100.00;101744.84;5024703;28;20123;-69
2023/05/08 04:59:23;;;;;;;23.23;13.38;;;;;;;13.00;100.00;101740.31;5028703;28;20154;-69
2023/05/08 05:01:49;;;;;;;18.98;12.27;;;;;;;13.01;100.00;101750.56;5046607;28;20095;-69
2023/05/08 05:04:15;;;;;;;20.83;12.80;;;;;;;13.00;100.00;101748.94;5008433;28;20462;-69
2023/05/08 05:06:40;;;;;;;18.10;12.32;;;;;;;13.01;100.00;101747.13;5048404;28;20032;-69
2023/05/08 05:09:06;;;;;;;24.10;13.77;;;;;;;13.07;100.00;101754.34;5024670;28;20087;-68
2023/05/08 05:11:32;;;;;;;23.42;13.63;;;;;;;13.16;100.00;101752.63;5026709;28;20039;-69
2023/05/08 05:13:58;;;;;;;17.75;12.20;;;;;;;13.09;100.00;101760.25;5045194;28;20064;-69
2023/05/08 05:16:23;;;;;;;19.80;12.43;;;;;;;13.05;100.00;101761.50;5031067;28;20071;-69
2023/05/08 05:18:49;;;;;;;17.17;11.25;;;;;;;13.02;100.00;101767.00;5044390;28;20082;-69
2023/05/08 05:21:16;;;;;;;17.75;11.15;;;;;;;13.03;100.00;101769.47;5027130;28;20907;-69
2023/05/08 05:23:41;;;;;;;17.65;10.82;;;;;;;13.05;100.00;101779.72;5028799;28;20120;-69
2023/05/08 05:26:07;;;;;;;15.68;11.45;;;;;;;13.07;100.00;101780.38;5014394;28;20403;-69
2023/05/08 05:28:33;;;;;;;22.25;14.82;;;;;;;13.11;100.00;101775.69;5015127;28;20056;-69
2023/05/08 05:30:59;;;;;;;24.75;14.48;;;;;;;13.06;100.00;101773.56;5046759;28;20498;-68
2023/05/08 05:33:25;;;;;;;24.35;15.23;;;;;;;13.13;100.00;101771.16;5029412;28;20060;-69
2023/05/08 05:35:51;;;;;;;20.67;13.57;;;;;;;13.21;100.00;101771.25;5025830;28;20697;-69
2023/05/08 05:38:16;;;;;;;25.38;14.25;;;;;;;13.15;100.00;101775.28;5044877;28;20103;-69
2023/05/08 05:40:42;;;;;;;19.15;12.40;;;;;;;13.15;100.00;101774.47;5043521;28;20837;-69
2023/05/08 05:43:08;;;;;;;20.55;13.32;;;;;;;13.37;100.00;101781.00;5026780;28;20056;-69
2023/05/08 05:45:33;;;;;;;20.60;12.43;;;;;;;13.36;100.00;101774.16;5045770;28;20064;-68
2023/05/08 05:47:59;;;;;;;18.38;12.55;;;;;;;13.58;100.00;101783.28;5045756;28;20032;-68
2023/05/08 05:50:26;;;;;;;19.15;12.68;;;;;;;13.78;100.00;101787.34;5027275;28;20588;-69
2023/05/08 05:52:53;;;;;;;20.85;13.35;;;;;;;13.91;100.00;101786.94;5024778;28;20043;-68
2023/05/08 05:55:19;;;;;;;17.70;12.50;;;;;;;14.20;100.00;101788.38;5009617;28;20078;-68
2023/05/08 05:57:47;;;;;;;17.20;11.43;;;;;;;14.43;100.00;101783.44;5042937;28;20527;-69
2023/05/08 06:00:12;;;;;;;20.77;13.02;;;;;;;14.68;100.00;101788.78;5015811;28;20453;-69
2023/05/08 06:02:45;;;;;;;19.40;11.35;;;;;;;15.01;100.00;101791.44;5042584;28;20395;-68
2023/05/08 06:05:14;;;;;;;16.55;11.77;;;;;;;15.22;100.00;101781.34;5043941;28;20460;-69
2023/05/08 06:07:39;;;;;;;17.15;10.57;;;;;;;15.38;100.00;101783.16;5028408;28;20040;-69
2023/05/08 06:10:05;;;;;;;16.58;10.05;;;;;;;15.53;100.00;101772.84;5028788;28;20048;-68
2023/05/08 06:12:31;;;;;;;15.70;9.70;;;;;;;15.75;100.00;101782.66;5027475;28;20031;-69
2023/05/08 06:14:58;;;;;;;17.70;10.80;;;;;;;15.93;100.00;101781.63;5044807;28;20064;-69
2023/05/08 06:17:24;;;;;;;18.08;11.15;;;;;;;15.76;100.00;101791.31;5043379;28;20033;-69
2023/05/08 06:19:52;;;;;;;15.93;11.00;;;;;;;15.75;100.00;101789.69;5013398;28;20048;-69
2023/05/08 06:22:24;;;;;;;20.65;12.10;;;;;;;15.59;100.00;101790.47;5045614;28;20033;-68
2023/05/08 06:24:52;;;;;;;14.73;11.13;;;;;;;15.40;100.00;101794.25;5043909;28;20053;-68
2023/05/08 06:27:21;;;;;;;21.00;11.65;;;;;;;15.32;100.00;101800.28;5024995;28;20037;-68
2023/05/08 06:29:51;;;;;;;16.77;11.02;;;;;;;15.46;100.00;101795.38;5008670;28;20042;-69
2023/05/08 06:32:18;;;;;;;19.52;10.75;;;;;;;15.65;100.00;101800.31;5045032;28;20024;-68
2023/05/08 06:34:44;;;;;;;16.30;11.00;;;;;;;15.81;100.00;101799.47;5043997;28;20048;-69
2023/05/08 06:37:10;;;;;;;25.25;15.25;;;;;;;16.09;100.00;101807.75;5042343;28;21756;-67
2023/05/08 06:39:35;;;;;;;17.30;12.05;;;;;;;16.35;100.00;101806.69;5041060;28;20037;-69
2023/05/08 06:42:01;;;;;;;18.45;11.90;;;;;;;16.46;100.00;101802.88;5043237;28;20059;-69
2023/05/08 06:44:30;;;;;;;18.08;11.68;;;;;;;16.33;100.00;101800.78;5028711;22;20068;-74
2023/05/08 06:46:55;;;;;;;20.50;14.27;;;;;;;16.03;100.00;101802.34;5019965;28;20646;-73
2023/05/08 06:49:21;;;;;;;20.60;13.93;;;;;;;15.85;100.00;101802.56;5018291;28;20056;-73
2023/05/08 06:51:47;;;;;;;24.35;16.48;;;;;;;15.98;100.00;101802.06;5006520;28;20060;-74
2023/05/08 06:54:12;;;;;;;24.58;15.98;;;;;;;16.15;100.00;101801.03;5020790;28;20077;-73
2023/05/08 06:56:38;;;;;;;26.80;17.50;;;;;;;16.68;100.00;101802.09;5000810;28;20042;-73
2023/05/08 06:59:03;;;;;;;23.75;15.38;;;;;;;17.27;100.00;101801.59;5004133;28;20050;-74
2023/05/08 07:01:29;;;;;;;19.83;14.13;;;;;;;17.85;99.48;101798.47;5004261;28;20099;-74
2023/05/08 07:03:57;;;;;;;23.52;15.07;;;;;;;18.19;96.29;101799.75;5004564;28;20530;-74
2023/05/08 07:06:22;;;;;;;22.67;14.18;;;;;;;18.10;92.50;101799.03;5006029;28;20037;-74
2023/05/08 07:08:48;;;;;;;18.45;13.07;;;;;;;18.02;93.43;101799.13;5003225;28;20046;-74
2023/05/08 07:11:14;;;;;;;21.58;13.80;;;;;;;18.25;93.63;101797.22;4986244;28;20088;-73
2023/05/08 07:13:42;;;;;;;19.52;11.98;;;;;;;18.49;91.71;101806.59;5002280;28;20042;-74
2023/05/08 07:16:11;;;;;;;18.63;11.90;;;;;;;18.37;92.28;101812.50;5003409;28;20022;-73
2023/05/08 07:18:36;;;;;;;23.33;11.63;;;;;;;18.00;92.97;101811.59;5002741;28;20096;-74
2023/05/08 07:21:02;;;;;;;15.32;10.60;;;;;;;18.37;91.83;101808.06;5005240;28;20041;-74
2023/05/08 07:23:28;;;;;;;15.35;10.18;;;;;;;18.88;88.99;101812.50;5001336;28;20137;-74
2023/05/08 07:25:56;;;;;;;16.27;9.43;;;;;;;19.32;84.82;101808.88;4999734;28;20132;-74
2023/05/08 07:28:22;;;;;;;16.52;9.43;;;;;;;19.21;85.21;101810.22;5018425;28;20050;-74
2023/05/08 07:30:47;;;;;;;21.35;9.60;;;;;;;19.49;83.13;101808.59;5002057;28;20454;-74
2023/05/08 07:33:13;;;;;;;11.52;8.23;;;;;;;20.02;80.99;101807.16;5002676;28;20044;-74
2023/05/08 07:35:39;;;;;;;16.80;8.75;;;;;;;20.24;79.25;101809.69;5020183;28;20423;-74
2023/05/08 07:38:05;;;;;;;15.90;8.43;;;;;;;20.26;78.95;101810.31;5018585;28;20133;-75
2023/05/08 07:40:30;;;;;;;11.95;8.50;;;;;;;20.29;79.91;101814.38;5004252;28;20069;-74
2023/05/08 07:42:56;;;;;;;12.40;8.60;;;;;;;20.32;79.51;101808.72;5018909;28;20037;-74
2023/05/08 07:45:22;;;;;;;13.02;8.15;;;;;;;19.86;81.07;101806.66;5003491;28;20036;-75
2023/05/08 07:47:52;;;;;;;12.15;7.53;;;;;;;19.63;81.53;101802.44;5001413;28;20499;-75
2023/05/08 07:50:19;;;;;;;14.93;9.00;;;;;;;19.80;81.95;101809.06;5004115;28;20036;-75
2023/05/08 07:52:44;;;;;;;15.77;7.45;;;;;;;20.46;78.76;101809.59;5004745;28;20041;-75
2023/05/08 07:55:10;;;;;;;11.80;7.22;;;;;;;20.47;77.14;101814.63;5003198;28;20038;-74
2023/05/08 07:57:40;;;;;;;12.35;7.80;;;;;;;20.71;77.85;101808.06;5003088;28;20034;-75
2023/05/08 08:00:07;;;;;;;11.43;7.57;;;;;;;20.71;75.83;101804.63;4997975;28;20046;-74
2023/05/08 08:02:39;;;;;;;12.15;8.13;;;;;;;21.14;74.17;101799.03;4998842;28;20482;-75
2023/05/08 08:05:05;;;;;;;11.95;7.78;;;;;;;21.11;73.86;101802.84;5004471;28;20046;-75
2023/05/08 08:07:34;;;;;;;15.38;7.60;;;;;;;21.56;74.93;101797.78;5005341;28;20022;-75
2023/05/08 08:10:00;;;;;;;11.88;8.13;;;;;;;21.56;72.22;101797.78;5004911;28;20664;-75
2023/05/08 08:12:27;;;;;;;11.82;8.48;;;;;;;21.39;71.50;101796.56;5021050;28;20076;-75
2023/05/08 08:14:53;;;;;;;12.20;7.80;;;;;;;21.41;73.53;101806.94;5001923;28;20089;-75
2023/05/08 08:17:18;;;;;;;14.55;7.82;;;;;;;20.78;74.81;101808.91;5021646;28;20041;-74
2023/05/08 08:19:44;;;;;;;11.75;7.50;;;;;;;21.13;74.28;101807.94;5004668;28;20077;-76
2023/05/08 08:22:09;;;;;;;11.95;7.80;;;;;;;21.70;72.44;101808.34;5001998;28;20041;-75
2023/05/08 08:24:35;;;;;;;10.57;6.88;;;;;;;21.83;70.40;101810.97;5004453;28;20065;-75
2023/05/08 08:27:01;;;;;;;11.73;7.88;;;;;;;21.78;71.02;101813.41;5004825;28;20030;-75
2023/05/08 08:29:30;;;;;;;14.40;7.78;;;;;;;21.64;70.73;101806.53;5001725;28;20058;-74
2023/05/08 08:31:55;;;;;;;12.13;6.90;;;;;;;21.53;72.41;101807.94;5001692;28;20464;-74
2023/05/08 08:34:21;;;;;;;10.27;7.10;;;;;;;21.63;72.44;101805.72;4985551;28;20121;-75
2023/05/08 08:36:47;;;;;;;11.02;7.82;;;;;;;21.20;72.20;101806.91;5003378;28;20030;-76
2023/05/08 08:39:12;;;;;;;10.85;7.35;;;;;;;20.87;74.42;101804.25;5020105;28;20656;-75
2023/05/08 08:41:38;;;;;;;9.70;6.90;;;;;;;20.77;75.79;101806.47;5019370;28;20030;-75
2023/05/08 08:44:04;;;;;;;13.07;7.38;;;;;;;20.83;75.29;101803.00;5018999;28;20042;-75
2023/05/08 08:46:32;;;;;;;9.23;6.80;;;;;;;21.13;72.17;101808.72;5021119;23;20052;-70
2023/05/08 08:49:01;;;;;;;9.40;7.00;;;;;;;21.49;72.04;101806.75;5020645;28;20060;-70
2023/05/08 08:51:31;;;;;;;9.65;6.85;;;;;;;21.64;69.55;101799.41;5038064;28;20062;-70
2023/05/08 08:54:07;;;;;;;13.57;7.57;;;;;;;21.68;70.25;101799.81;5008337;28;20099;-70
2023/05/08 08:56:35;;;;;;;11.25;6.97;;;;;;;21.75;71.86;101798.78;5016815;28;20503;-70
2023/05/08 08:59:02;;;;;;;11.88;7.25;;;;;;;21.47;70.79;101804.31;5023379;28;20136;-71
2023/05/08 09:01:28;;;;;;;12.55;7.22;;;;;;;21.26;72.45;101801.84;5005727;28;20570;-71
2023/05/08 09:03:58;;;;;;;9.25;6.10;;;;;;;21.12;75.39;101803.69;5024613;28;20127;-71
2023/05/08 09:06:23;;;;;;;10.10;6.85;;;;;;;21.25;75.12;101802.84;5025174;28;20087;-71
2023/05/08 09:08:51;;;;;;;9.85;6.82;;;;;;;21.63;72.47;101804.91;5028962;28;20511;-71
2023/05/08 09:11:16;;;;;;;10.90;6.00;;;;;;;21.64;71.12;101802.03;5026672;28;20079;-72
2023/05/08 09:13:42;;;;;;;9.52;5.40;;;;;;;21.33;72.03;101800.84;5009315;28;20041;-71
2023/05/08 09:16:10;;;;;;;8.05;5.18;;;;;;;21.34;72.45;101796.38;5026934;28;20037;-72
2023/05/08 09:18:36;;;;;;;8.23;5.55;;;;;;;21.11;72.67;101800.22;5027195;28;20100;-71
2023/05/08 09:21:07;;;;;;;8.65;5.20;;;;;;;21.13;72.34;101806.09;5027987;28;20037;-72
2023/05/08 09:23:36;;;;;;;7.63;4.22;;;;;;;21.30;71.89;101797.78;5024234;28;20047;-72
2023/05/08 09:26:02;;;;;;;5.45;4.20;;;;;;;21.18;71.06;101795.75;5023984;28;20026;-72
2023/05/08 09:28:27;;;;;;;6.80;3.85;;;;;;;21.03;69.22;101800.41;5020889;28;20068;-72
2023/05/08 09:30:54;;;;;;;7.43;3.88;;;;;;;21.04;69.02;101793.31;5027400;28;20057;-71
2023/05/08 09:33:21;;;;;;;3.65;2.70;;;;;;;20.93;70.38;101789.47;5008655;28;20059;-72
2023/05/08 09:35:47;;;;;;;3.92;2.97;;;;;;;20.99;70.76;101789.47;5022894;28;20045;-71
2023/05/08 09:38:36;;;;;;;6.75;4.00;;;;;;;21.04;71.34;101788.88;5022565;28;20053;-72
2023/05/08 09:41:10;;;;;;;6.00;3.55;;;;;;;21.08;71.80;101790.09;5027128;28;20049;-71
2023/05/08 09:43:39;;;;;;;5.50;3.67;;;;;;;20.96;71.18;101789.06;5023235;28;20484;-72
2023/05/08 09:46:25;;;;;;;6.10;3.72;;;;;;;21.05;70.43;101782.56;5021715;28;20426;-71
2023/05/08 09:48:52;;;;;;;6.57;3.55;;;;;;;20.74;70.90;101796.34;5023363;28;20140;-71
2023/05/08 09:51:18;;;;;;;8.85;3.95;;;;;;;20.68;71.13;101795.31;5025534;28;20067;-71
2023/05/08 09:53:44;;;;;;;5.65;4.38;;;;;;;20.47;72.26;101796.19;5027582;28;20037;-71
2023/05/08 09:56:10;;;;;;;7.20;5.22;;;;;;;20.68;72.25;101797.94;5026439;28;20036;-72
2023/05/08 09:58:43;;;;;;;9.75;5.55;;;;;;;20.70;73.54;101802.97;4999078;28;20045;-71
2023/05/08 10:01:30;;;;;;;7.20;5.13;;;;;;;20.92;74.03;101799.19;5021168;28;20047;-72
2023/05/08 10:03:55;;;;;;;12.32;6.20;;;;;;;21.09;72.28;101798.81;5005030;28;20045;-72
2023/05/08 10:06:21;;;;;;;8.63;5.93;;;;;;;21.50;72.62;101796.00;5006627;28;20514;-71
2023/05/08 10:08:47;;;;;;;7.00;5.70;;;;;;;21.68;72.25;101795.38;5022579;28;20527;-71
2023/05/08 10:11:16;;;;;;;11.80;6.95;;;;;;;21.74;70.15;101791.09;5020093;28;20049;-71
2023/05/08 10:13:43;;;;;;;9.38;6.45;;;;;;;21.71;69.18;101799.41;5005529;28;20074;-71
2023/05/08 10:16:19;;;;;;;11.20;6.95;;;;;;;21.68;67.55;101798.00;5025387;28;20090;-71
2023/05/08 10:18:48;;;;;;;8.45;6.50;;;;;;;21.77;67.87;101791.50;5018899;28;20083;-71
2023/05/08 10:21:15;;;;;;;7.80;6.68;;;;;;;21.97;65.53;101793.25;5019626;28;20099;-71
2023/05/08 10:23:47;;;;;;;7.53;5.88;;;;;;;22.23;67.27;101783.63;5019292;28;20992;-72
2023/05/08 10:26:18;;;;;;;;;;;;;;;22.46;65.61;101781.31;5019386;28;20030;-72
2023/05/08 10:29:05;;;;;;;12.65;8.10;;;;;;;22.71;62.89;101777.91;5017105;28;19929;-71
2023/05/08 10:31:35;;;;;;;12.93;10.23;;;;;;;22.87;66.69;101782.69;5020436;28;20112;-71
2023/05/08 10:34:02;;;;;;;12.23;9.65;;;;;;;23.13;66.06;101776.41;5017856;28;20095;-72
2023/05/08 10:36:29;;;;;;;12.25;9.82;;;;;;;23.28;64.65;101772.59;5002933;28;20036;-72
2023/05/08 10:38:57;;;;;;;11.40;9.85;;;;;;;22.92;62.53;101767.00;5019721;28;20580;-71
2023/05/08 10:41:23;;;;;;;14.75;10.55;;;;;;;23.06;65.04;101765.06;5001404;28;20629;-72
2023/05/08 10:43:49;;;;;;;16.85;10.75;;;;;;;23.25;63.39;101771.22;5004743;28;20053;-72
2023/05/08 10:46:26;;;;;;;17.02;9.70;;;;;;;22.94;64.26;101772.88;5021836;28;20071;-72
2023/05/08 10:48:52;;;;;;;13.52;10.07;;;;;;;23.24;64.82;101768.78;5009883;28;20523;-72
2023/05/08 10:51:47;;;;;;;16.70;11.98;;;;;;;22.90;64.09;101766.38;4997605;28;20775;-71
2023/05/08 10:54:29;;;;;;;14.45;10.75;;;;;;;23.01;66.00;101770.16;5021677;28;20257;-72
2023/05/08 10:57:12;;;;;;;12.52;10.07;;;;;;;22.74;65.20;101767.72;5023732;28;20029;-72
2023/05/08 10:59:37;;;;;;;13.95;10.27;;;;;;;23.10;64.11;101763.59;5020108;28;20111;-72
2023/05/08 11:02:07;;;;;;;14.18;11.18;;;;;;;23.28;64.33;101762.03;5003643;28;20029;-72
2023/05/08 11:04:33;;;;;;;12.52;9.82;;;;;;;23.30;63.12;101752.88;5017824;28;20036;-71
2023/05/08 11:06:59;;;;;;;12.25;9.52;;;;;;;23.24;63.95;101751.06;5015823;28;20398;-71
2023/05/08 11:09:30;;;;;;;10.57;9.20;;;;;;;23.10;66.55;101746.94;5005598;28;20048;-71
2023/05/08 11:12:06;;;;;;;10.18;9.07;;;;;;;23.61;63.38;101747.69;5008421;28;20582;-71
2023/05/08 11:14:35;;;;;;;13.57;7.95;;;;;;;23.77;64.12;101741.81;5002850;28;20049;-72
2023/05/08 11:17:01;;;;;;;9.52;8.52;;;;;;;23.81;63.22;101739.53;5003739;28;20033;-71
2023/05/08 11:19:27;;;;;;;10.52;7.95;;;;;;;24.08;63.75;101737.38;5022473;28;20049;-72